createdAt,value
2022-12-19T00:03:17.156Z,-4.30
2022-12-19T00:08:19.445Z,-4.20
2022-12-19T00:13:21.708Z,-4.30
2022-12-19T00:18:23.975Z,-4.30
2022-12-19T00:23:31.201Z,-4.50
2022-12-19T00:28:33.437Z,-4.50
2022-12-19T00:33:35.668Z,-4.50
2022-12-19T00:38:40.638Z,-4.60
2022-12-19T00:43:46.597Z,-4.60
2022-12-19T00:48:49.286Z,-4.60
2022-12-19T00:53:53.309Z,-4.60
2022-12-19T00:58:56.871Z,-4.60
2022-12-19T01:09:22.730Z,-4.60
2022-12-19T01:14:24.965Z,-4.60
2022-12-19T01:19:27.594Z,-4.70
2022-12-19T01:24:29.922Z,-4.60
2022-12-19T01:29:32.956Z,-4.70
2022-12-19T01:34:36.823Z,-4.70
2022-12-19T01:39:39.250Z,-4.70
2022-12-19T01:45:13.832Z,-5.00
2022-12-19T01:50:29.413Z,-4.90
2022-12-19T01:55:31.760Z,-4.90
2022-12-19T02:00:34.283Z,-5.00
2022-12-19T02:05:37.164Z,-4.90
2022-12-19T02:10:39.507Z,-5.10
2022-12-19T02:16:02.281Z,-5.10
2022-12-19T02:21:22.037Z,-5.00
2022-12-19T02:26:37.363Z,-4.90
2022-12-19T02:31:57.705Z,-5.00
2022-12-19T02:37:05.463Z,-5.00
2022-12-19T02:42:13.745Z,-5.20
2022-12-19T02:47:19.193Z,-5.10
2022-12-19T02:52:23.294Z,-5.20
2022-12-19T02:57:56.755Z,-5.10
2022-12-19T03:03:12.125Z,-5.00
2022-12-19T03:08:46.867Z,-5.10
2022-12-19T03:14:03.775Z,-5.10
2022-12-19T03:19:10.435Z,-5.10
2022-12-19T03:24:13.802Z,-5.10
2022-12-19T03:29:25.025Z,-5.10
2022-12-19T03:34:42.022Z,-5.20
2022-12-19T03:39:48.179Z,-5.20
2022-12-19T03:44:51.892Z,-5.10
2022-12-19T03:49:54.625Z,-5.10
2022-12-19T03:55:21.418Z,-5.10
2022-12-19T04:00:25.315Z,-5.00
2022-12-19T04:05:29.215Z,-5.10
2022-12-19T04:10:38.080Z,-5.10
2022-12-19T04:15:46.763Z,-5.10
2022-12-19T04:21:13.170Z,-5.00
2022-12-19T04:26:18.911Z,-5.20
2022-12-19T04:31:22.965Z,-5.10
2022-12-19T04:36:26.547Z,-5.10
2022-12-19T04:41:28.779Z,-5.00
2022-12-19T04:46:31.372Z,-5.00
2022-12-19T04:51:33.664Z,-5.10
2022-12-19T04:56:35.917Z,-5.10
2022-12-19T05:01:38.264Z,-5.10
2022-12-19T05:06:40.584Z,-4.90
2022-12-19T05:11:42.893Z,-4.90
2022-12-19T05:16:45.170Z,-5.00
2022-12-19T05:21:47.407Z,-4.90
2022-12-19T05:26:49.932Z,-5.00
2022-12-19T05:31:52.434Z,-4.90
2022-12-19T05:36:54.688Z,-5.00
2022-12-19T05:41:57.203Z,-4.90
2022-12-19T05:47:00.482Z,-4.90
2022-12-19T05:52:02.768Z,-4.90
2022-12-19T05:57:05.099Z,-4.80
2022-12-19T06:02:07.423Z,-5.00
2022-12-19T06:07:09.757Z,-5.00
2022-12-19T06:12:12.033Z,-5.00
2022-12-19T06:17:14.311Z,-5.10
2022-12-19T06:22:16.546Z,-5.10
2022-12-19T06:27:18.852Z,-5.10
2022-12-19T06:32:21.116Z,-5.10
2022-12-19T06:37:23.353Z,-5.20
2022-12-19T06:42:25.775Z,-5.10
2022-12-19T06:47:28.123Z,-5.20
2022-12-19T06:52:30.486Z,-5.20
2022-12-19T06:57:33.212Z,-5.00
2022-12-19T07:02:35.674Z,-5.20
2022-12-19T07:07:38.325Z,-5.20
2022-12-19T07:12:40.638Z,-5.10
2022-12-19T07:17:43.386Z,-5.10
2022-12-19T07:22:45.980Z,-5.00
2022-12-19T07:27:48.621Z,-4.90
2022-12-19T07:32:50.995Z,-4.90
2022-12-19T07:37:53.386Z,-4.80
2022-12-19T07:43:00.480Z,-4.70
2022-12-19T07:48:04.098Z,-4.70
2022-12-19T07:53:06.411Z,-4.70
2022-12-19T07:58:10.498Z,-4.60
2022-12-19T08:03:12.817Z,-4.50
2022-12-19T08:08:15.589Z,-4.40
2022-12-19T08:13:17.917Z,-4.30
2022-12-19T08:18:20.159Z,-4.20
2022-12-19T08:23:22.856Z,-4.10
2022-12-19T08:28:25.500Z,-4.10
2022-12-19T08:33:28.126Z,-4.00
2022-12-19T08:38:30.422Z,-3.90
2022-12-19T08:43:33.364Z,-3.70
2022-12-19T08:48:36.991Z,-3.70
2022-12-19T08:53:41.311Z,-3.50
2022-12-19T08:58:44.240Z,-3.40
2022-12-19T09:05:01.167Z,-3.20
2022-12-19T09:09:10.301Z,-3.10
2022-12-19T09:14:12.583Z,-2.90
2022-12-19T09:19:17.075Z,-2.70
2022-12-19T09:24:19.949Z,-2.50
2022-12-19T09:29:22.548Z,-2.30
2022-12-19T09:34:33.059Z,-2.20
2022-12-19T09:39:40.991Z,-2.10
2022-12-19T09:44:59.213Z,-2.00
2022-12-19T09:50:02.814Z,-2.00
2022-12-19T09:55:17.444Z,-1.90
2022-12-19T10:00:23.362Z,-1.70
2022-12-19T10:07:08.711Z,-1.40
2022-12-19T10:12:45.958Z,-1.40
2022-12-19T10:17:45.160Z,-1.10
2022-12-19T10:22:58.430Z,-0.70
2022-12-19T10:28:19.770Z,-0.50
2022-12-19T10:33:45.620Z,-0.30
2022-12-19T10:39:03.651Z,0.00
2022-12-19T10:44:10.166Z,0.10
2022-12-19T10:49:17.138Z,0.30
2022-12-19T10:54:20.776Z,0.40
2022-12-19T10:59:23.136Z,0.50
2022-12-19T11:04:25.606Z,0.60
2022-12-19T11:09:48.126Z,0.60
2022-12-19T11:20:12.325Z,0.70
2022-12-19T11:29:25.772Z,0.90
2022-12-19T11:30:46.430Z,0.90
2022-12-19T11:32:31.471Z,0.90
2022-12-19T11:37:00.255Z,1.20
2022-12-19T11:42:16.866Z,1.40
2022-12-19T11:47:40.183Z,1.70
2022-12-19T11:53:03.922Z,1.80
2022-12-19T11:58:13.697Z,2.00
2022-12-19T12:04:02.295Z,2.10
2022-12-19T12:14:32.875Z,2.10
2022-12-19T12:25:30.381Z,2.00
2022-12-19T12:31:05.881Z,1.90
2022-12-19T12:31:15.936Z,1.80
2022-12-19T12:35:55.104Z,1.80
2022-12-19T12:43:52.071Z,1.80
2022-12-19T12:49:04.747Z,1.80
2022-12-19T12:54:12.548Z,1.80
2022-12-19T12:59:22.827Z,1.90
2022-12-19T13:04:29.138Z,2.10
2022-12-19T13:09:35.459Z,2.20
2022-12-19T13:14:37.652Z,2.10
2022-12-19T13:19:56.682Z,2.00
2022-12-19T13:25:19.117Z,1.80
2022-12-19T14:13:51.176Z,1.60
2022-12-19T14:19:15.585Z,1.60
2022-12-19T14:31:05.847Z,1.60
2022-12-19T14:52:34.841Z,1.50
2022-12-19T14:54:37.840Z,1.50
2022-12-19T14:56:16.611Z,1.50
2022-12-19T15:01:25.053Z,1.60
2022-12-19T15:07:06.861Z,1.50
2022-12-19T15:14:47.788Z,1.60
2022-12-19T15:17:47.671Z,1.50
2022-12-19T15:22:49.984Z,1.60
2022-12-19T15:27:52.229Z,1.60
2022-12-19T15:32:54.493Z,1.60
2022-12-19T15:37:56.789Z,1.70
2022-12-19T15:42:59.592Z,1.70
2022-12-19T15:48:01.953Z,1.70
2022-12-19T15:53:34.648Z,1.70
2022-12-19T15:58:42.520Z,1.70
2022-12-19T16:03:44.999Z,1.70
2022-12-19T16:08:47.526Z,1.70
2022-12-19T16:13:54.215Z,1.70
2022-12-19T16:18:56.604Z,1.60
2022-12-19T16:23:59.111Z,1.60
2022-12-19T16:29:02.458Z,1.60
2022-12-19T16:34:17.604Z,1.50
2022-12-19T16:39:20.055Z,1.50
2022-12-19T16:44:24.206Z,1.50
2022-12-19T16:49:27.864Z,1.50
2022-12-19T16:54:30.271Z,1.60
2022-12-19T16:59:42.110Z,1.60
2022-12-19T17:04:50.452Z,1.60
2022-12-19T17:09:56.135Z,1.60
2022-12-19T17:15:01.310Z,1.50
2022-12-19T17:20:04.027Z,1.60
2022-12-19T17:25:17.163Z,1.50
2022-12-19T17:30:20.322Z,1.30
2022-12-19T17:35:28.055Z,1.40
2022-12-19T17:40:33.538Z,1.40
2022-12-19T17:45:39.198Z,1.40
2022-12-19T18:42:50.278Z,1.30
2022-12-19T18:47:59.500Z,1.30
2022-12-19T18:53:14.192Z,1.20
2022-12-19T18:58:21.992Z,1.30
2022-12-19T19:03:53.357Z,1.40
2022-12-19T19:08:59.315Z,1.40
2022-12-19T19:14:20.906Z,1.40
2022-12-19T19:19:23.437Z,1.40
2022-12-19T19:24:25.927Z,1.40
2022-12-19T19:29:28.346Z,1.40
2022-12-19T19:34:33.908Z,1.40
2022-12-19T19:39:36.295Z,1.30
2022-12-19T19:44:38.732Z,1.40
2022-12-19T19:49:41.185Z,1.30
2022-12-19T19:54:43.635Z,1.30
2022-12-19T19:59:46.147Z,1.30
2022-12-19T20:04:48.894Z,1.30
2022-12-19T20:09:51.453Z,1.30
2022-12-19T20:14:54.194Z,1.30
2022-12-19T20:19:56.607Z,1.30
2022-12-19T20:24:59.302Z,1.30
2022-12-19T20:30:01.778Z,1.30
2022-12-19T20:35:06.761Z,1.40
2022-12-19T20:40:13.315Z,1.40
2022-12-19T20:45:15.932Z,1.40
2022-12-19T20:50:18.335Z,1.40
2022-12-19T20:55:20.838Z,1.40
2022-12-19T21:00:23.343Z,1.50
2022-12-19T21:05:25.893Z,1.50
2022-12-19T21:10:28.317Z,1.60
2022-12-19T21:15:31.626Z,1.60
2022-12-19T21:20:35.553Z,1.70
2022-12-19T21:25:38.767Z,1.60
2022-12-19T21:30:41.698Z,1.60
2022-12-19T21:35:44.178Z,1.70
2022-12-19T21:40:46.643Z,1.70
2022-12-19T21:45:49.039Z,1.70
2022-12-19T21:50:56.169Z,1.70
2022-12-19T21:56:15.082Z,1.80
2022-12-19T22:01:17.945Z,1.70
2022-12-19T22:06:27.803Z,1.80
2022-12-19T22:11:31.582Z,1.80
2022-12-19T22:16:35.277Z,2.00
2022-12-19T22:21:37.796Z,1.70
2022-12-19T22:26:40.784Z,1.90
2022-12-19T22:31:44.382Z,1.90
2022-12-19T22:36:48.020Z,1.90
2022-12-19T22:41:50.895Z,2.00
2022-12-19T22:46:53.374Z,2.00
2022-12-19T22:51:55.808Z,2.00
2022-12-19T22:56:58.292Z,2.00
2022-12-19T23:02:01.303Z,2.10
2022-12-19T23:07:03.885Z,2.10
2022-12-19T23:12:06.550Z,2.10
2022-12-19T23:17:09.673Z,2.10
2022-12-19T23:22:12.249Z,2.10
2022-12-19T23:27:15.059Z,2.30
2022-12-19T23:32:18.408Z,2.20
2022-12-19T23:37:21.027Z,2.20
2022-12-19T23:42:23.536Z,2.30
2022-12-19T23:47:26.136Z,2.20
2022-12-19T23:52:28.685Z,2.30
2022-12-19T23:57:31.131Z,2.30
